Darstellungsparameter: Aktuell verwendete Einstellungen:
Skalierung der Graphiken ... ?
xyx+y,   Skalierungsfaktor:      Skalierung: Modus: x, Faktor: 1
Darstellungszeitraum ... ?
Vom - - bis: - -   Zeitraum: 20.04.2021 - 20.04.2021
Min/Max/Avg-Anzeige ... ?
Zeige MMA aktuell
Zeige MMA Monat
Zeige MMA alles
Zeige --A aktuell
Zeige --A Monat
Zeige --A alles
Keine MMA-Anzeige
MMA:
Keine MMA-Graphiken
MMA-Basis: 20.04.2021 - 20.04.2021
Quicknavigation für Darstellung... ?
Tage:      1T, 2T, 3T, 5T -1T -2T -3T -5T +1T +2T +3T +5T
Wochen: 1W, 2W, 3W -1W -2W -3W +1W +2W +3W
Monate: 1M, 3M, 6M -1M -3M -6M +1M +3M +6M
Jahre:    1J, 3J, 5J, 10J -1J -3J -5J -10J +1J +3J +5J +10J
Nutze für die Darstellung ... ?
Originaldaten oder Mittelwerte auf ...
Stundenbasis Tagesbasis Wochenbasis
Monatsbasis Jahresbasis      Datenbasis: Original-Daten
Darstellen als:
Statistik (Auto) Statistik J:M      Darstellung:

Der gewünschte Datumsbereich war nicht gültig/verfügbar und wurde korrigiert....
Das angegebene Enddatum (05.09.2024 23:59:59) liegt in der Zukunft.
Das angegebene Startdatum (06.03.2024 00:00:00) liegt in der Zukunft.


Zur Graphik,    zurück zur Übersicht aller Sensoren.
 
Tabellarische Datenbersicht: ?
 
Sensor: Nr:Datum:Temp:Feuchte:Taupunkt:
Aussen-T/F 1 20-04-2021 02:00:00 4.8 C 93 % 3.77 C
2 20-04-2021 02:05:00 4.7 C 93 % 3.67 C
3 20-04-2021 02:10:00 4.6 C 93 % 3.57 C
4 20-04-2021 02:15:00 4.6 C 93 % 3.57 C
5 20-04-2021 02:20:00 4.6 C 93 % 3.57 C
6 20-04-2021 02:25:00 4.5 C 93 % 3.47 C
7 20-04-2021 02:30:00 4.5 C 93 % 3.47 C
8 20-04-2021 02:35:00 4.5 C 94 % 3.62 C
9 20-04-2021 02:40:00 4.5 C 94 % 3.62 C
10 20-04-2021 02:45:00 4.4 C 94 % 3.52 C
11 20-04-2021 02:50:00 4.3 C 94 % 3.42 C
12 20-04-2021 02:55:00 4.2 C 94 % 3.32 C
13 20-04-2021 03:00:00 4.2 C 94 % 3.32 C
14 20-04-2021 03:05:00 4.2 C 94 % 3.32 C
15 20-04-2021 03:10:00 4.1 C 94 % 3.22 C
16 20-04-2021 03:15:00 4 C 94 % 3.12 C
17 20-04-2021 03:20:00 4 C 94 % 3.12 C
18 20-04-2021 03:25:00 4 C 94 % 3.12 C
19 20-04-2021 03:30:00 3.9 C 94 % 3.02 C
20 20-04-2021 03:35:00 3.8 C 94 % 2.93 C
21 20-04-2021 03:40:00 3.8 C 94 % 2.93 C
22 20-04-2021 03:45:00 3.8 C 94 % 2.93 C
23 20-04-2021 03:50:00 3.7 C 94 % 2.83 C
24 20-04-2021 03:55:00 3.7 C 94 % 2.83 C
25 20-04-2021 04:00:00 3.7 C 94 % 2.83 C
Sensor: Nr:Datum:Temp:Feuchte:Taupunkt:
Aussen-T/F 26 20-04-2021 04:05:00 3.7 C 94 % 2.83 C
27 20-04-2021 04:10:00 3.7 C 94 % 2.83 C
28 20-04-2021 04:15:00 3.6 C 94 % 2.73 C
29 20-04-2021 04:20:00 3.5 C 94 % 2.63 C
30 20-04-2021 04:25:00 3.3 C 94 % 2.43 C
31 20-04-2021 04:30:00 3.2 C 94 % 2.33 C
32 20-04-2021 04:35:00 3.1 C 94 % 2.23 C
33 20-04-2021 04:40:00 3.1 C 94 % 2.23 C
34 20-04-2021 04:45:00 3 C 94 % 2.13 C
35 20-04-2021 04:50:00 2.9 C 94 % 2.03 C
36 20-04-2021 04:55:00 3 C 95 % 2.28 C
37 20-04-2021 05:00:00 2.9 C 95 % 2.18 C
38 20-04-2021 05:05:00 2.9 C 94 % 2.03 C
39 20-04-2021 05:10:00 2.8 C 95 % 2.08 C
40 20-04-2021 05:15:00 2.7 C 94 % 1.83 C
41 20-04-2021 05:20:00 2.7 C 94 % 1.83 C
42 20-04-2021 05:25:00 2.7 C 95 % 1.98 C
43 20-04-2021 05:30:00 2.7 C 95 % 1.98 C
44 20-04-2021 05:35:00 2.6 C 95 % 1.88 C
45 20-04-2021 05:40:00 2.6 C 95 % 1.88 C
46 20-04-2021 05:45:00 2.5 C 95 % 1.78 C
47 20-04-2021 05:50:00 2.6 C 95 % 1.88 C
48 20-04-2021 05:55:00 2.6 C 95 % 1.88 C
49 20-04-2021 06:00:00 2.5 C 95 % 1.78 C
50 20-04-2021 06:05:00 2.6 C 95 % 1.88 C
Sensor: Nr:Datum:Temp:Feuchte:Taupunkt:
Aussen-T/F 51 20-04-2021 06:10:00 2.6 C 95 % 1.88 C
52 20-04-2021 06:15:00 2.4 C 95 % 1.68 C
53 20-04-2021 06:20:00 2.3 C 95 % 1.58 C
54 20-04-2021 06:25:00 2.3 C 95 % 1.58 C
55 20-04-2021 06:30:00 2.2 C 95 % 1.48 C
56 20-04-2021 06:35:00 2.1 C 95 % 1.38 C
57 20-04-2021 06:40:00 2.1 C 95 % 1.38 C
58 20-04-2021 06:45:00 2.1 C 95 % 1.38 C
59 20-04-2021 06:50:00 2.1 C 95 % 1.38 C
60 20-04-2021 06:55:00 2.1 C 95 % 1.38 C
61 20-04-2021 07:00:00 2.2 C 95 % 1.48 C
62 20-04-2021 07:05:00 2.2 C 95 % 1.48 C
63 20-04-2021 07:10:00 2.3 C 95 % 1.58 C
64 20-04-2021 07:15:00 2.3 C 95 % 1.58 C
65 20-04-2021 07:20:00 2.5 C 96 % 1.93 C
66 20-04-2021 07:25:00 2.7 C 96 % 2.13 C
67 20-04-2021 07:30:00 2.8 C 96 % 2.23 C
68 20-04-2021 07:35:00 2.9 C 96 % 2.33 C
69 20-04-2021 07:40:00 2.9 C 96 % 2.33 C
70 20-04-2021 07:45:00 2.9 C 96 % 2.33 C
71 20-04-2021 07:50:00 2.9 C 96 % 2.33 C
72 20-04-2021 07:55:00 2.9 C 96 % 2.33 C
73 20-04-2021 08:00:00 2.9 C 96 % 2.33 C
74 20-04-2021 08:05:00 3 C 96 % 2.43 C
75 20-04-2021 08:10:00 3.1 C 96 % 2.53 C
Sensor: Nr:Datum:Temp:Feuchte:Taupunkt:
Aussen-T/F 76 20-04-2021 08:15:00 3.2 C 96 % 2.63 C
77 20-04-2021 08:20:00 3.2 C 96 % 2.63 C
78 20-04-2021 08:25:00 3.3 C 96 % 2.72 C
79 20-04-2021 08:30:00 3.3 C 96 % 2.72 C
80 20-04-2021 08:35:00 3.5 C 96 % 2.92 C
81 20-04-2021 08:40:00 3.7 C 96 % 3.12 C
82 20-04-2021 08:45:00 3.8 C 96 % 3.22 C
83 20-04-2021 08:50:00 3.9 C 96 % 3.32 C
84 20-04-2021 08:55:00 4.1 C 96 % 3.52 C
85 20-04-2021 09:00:00 4.2 C 96 % 3.62 C
86 20-04-2021 09:05:00 4.3 C 96 % 3.72 C
87 20-04-2021 09:10:00 4.3 C 96 % 3.72 C
88 20-04-2021 09:15:00 4.4 C 96 % 3.82 C
89 20-04-2021 09:20:00 4.5 C 96 % 3.92 C
90 20-04-2021 09:25:00 4.6 C 96 % 4.02 C
91 20-04-2021 09:30:00 4.6 C 96 % 4.02 C
92 20-04-2021 09:35:00 4.7 C 96 % 4.12 C
93 20-04-2021 09:40:00 4.9 C 96 % 4.32 C
94 20-04-2021 09:45:00 5.1 C 97 % 4.66 C
95 20-04-2021 09:50:00 5.3 C 97 % 4.86 C
96 20-04-2021 09:55:00 5.7 C 97 % 5.26 C
97 20-04-2021 10:00:00 5.8 C 97 % 5.36 C
98 20-04-2021 10:05:00 6 C 97 % 5.56 C
99 20-04-2021 10:10:00 6.2 C 97 % 5.76 C
100 20-04-2021 10:15:00 6.4 C 97 % 5.96 C
Sensor: Nr:Datum:Temp:Feuchte:Taupunkt:
Aussen-T/F 101 20-04-2021 10:20:00 6.8 C 97 % 6.36 C
102 20-04-2021 10:25:00 7.1 C 97 % 6.66 C
103 20-04-2021 10:30:00 7.4 C 97 % 6.96 C
104 20-04-2021 10:35:00 7.6 C 97 % 7.16 C
105 20-04-2021 10:40:00 7.8 C 97 % 7.35 C
106 20-04-2021 10:45:00 8.1 C 97 % 7.65 C
107 20-04-2021 10:50:00 8.3 C 97 % 7.85 C
108 20-04-2021 10:55:00 8.7 C 96 % 8.1 C
109 20-04-2021 11:00:00 9.1 C 95 % 8.34 C
110 20-04-2021 11:05:00 9.3 C 94 % 8.39 C
111 20-04-2021 11:10:00 9.6 C 92 % 8.37 C
112 20-04-2021 11:15:00 9.8 C 90 % 8.24 C
113 20-04-2021 11:20:00 10.2 C 88 % 8.3 C
114 20-04-2021 11:25:00 10.6 C 86 % 8.36 C
115 20-04-2021 11:30:00 11 C 85 % 8.58 C
116 20-04-2021 11:35:00 11.3 C 84 % 8.7 C
117 20-04-2021 11:40:00 11.7 C 80 % 8.37 C
118 20-04-2021 11:45:00 12.1 C 79 % 8.57 C
119 20-04-2021 11:50:00 12.4 C 76 % 8.29 C
120 20-04-2021 11:55:00 12.8 C 70 % 7.47 C
121 20-04-2021 12:00:00 13 C 72 % 8.08 C
122 20-04-2021 12:05:00 13.1 C 70 % 7.76 C
123 20-04-2021 12:10:00 13.3 C 68 % 7.53 C
124 20-04-2021 12:15:00 13.6 C 66 % 7.38 C
125 20-04-2021 12:20:00 13.8 C 65 % 7.34 C
Sensor: Nr:Datum:Temp:Feuchte:Taupunkt:
Aussen-T/F 126 20-04-2021 12:25:00 14.1 C 62 % 6.94 C
127 20-04-2021 12:30:00 14.3 C 61 % 6.89 C
128 20-04-2021 12:35:00 14.3 C 59 % 6.41 C
129 20-04-2021 12:40:00 14.3 C 60 % 6.65 C
130 20-04-2021 12:45:00 14.4 C 59 % 6.5 C
131 20-04-2021 12:50:00 14.4 C 58 % 6.25 C
132 20-04-2021 12:55:00 14.4 C 59 % 6.5 C
133 20-04-2021 13:00:00 14.6 C 59 % 6.69 C
134 20-04-2021 13:05:00 14.8 C 60 % 7.12 C
135 20-04-2021 13:10:00 15.1 C 59 % 7.16 C
136 20-04-2021 13:15:00 15.2 C 58 % 7 C
137 20-04-2021 13:20:00 15.2 C 58 % 7 C
138 20-04-2021 13:25:00 15.2 C 58 % 7 C
139 20-04-2021 13:30:00 15.4 C 56 % 6.68 C
140 20-04-2021 13:35:00 15.5 C 58 % 7.28 C

Legende:
   Min
   Max


Maximal/Minimal-Werte vom 20.04.2021 - 20.04.2021

Sensor Min Max Avg
Temp
(Aussen-T/F)
2.1 °C
20-04-2021  06:35:00
15.5 °C
20-04-2021  13:35:00
5.96 °C
Feuchte
(Aussen-T/F)
56 %
20-04-2021  13:30:00
97 %
20-04-2021  09:45:00
89.41 %
Taupunkt
(Aussen-T/F)
1.38 C
20-04-2021  06:35:00
8.7 C
20-04-2021  11:35:00
4.11 C

Die Daten stammen von einer Davis Vantage Pro 2 Wetter-Station und werden unter Linux mit der Software wview2wettercgi und aufbereitet. Alle Angaben erfolgen ohne Gewähr für ihre Vollständigkeit oder Richtigkeit.
Kontakt: Rainer Krienke krienke@uni-koblenz.de . Meine Webseiten an der Uni Koblenz oder privat.
Version: $Revision: 0.78 $